Time;durP1;ratioP1;P1;durP2;ratioP2;P2;SDS_P1;SDS_P2;PMS_P1;PMS_P2;Temp;Humidity;BMP_temperature;BMP_pressure;BME280_temperature;BME280_humidity;BME280_pressure;Samples;Min_cycle;Max_cycle;Signal;HPM_P1;HPM_P2
2021/11/13 00:02:03;;;;;;;10.30;5.82;;;;;;;16.83;45.40;100908.09;4978793;28;20049;-60
2021/11/13 00:04:29;;;;;;;11.52;5.80;;;;;;;16.84;45.34;100898.94;4978750;28;20026;-59
2021/11/13 00:06:54;;;;;;;10.93;5.95;;;;;;;16.83;44.17;100897.28;4962836;28;20030;-60
2021/11/13 00:09:20;;;;;;;10.68;5.28;;;;;;;16.82;45.84;100901.84;4979048;28;20026;-59
2021/11/13 00:11:45;;;;;;;17.27;5.72;;;;;;;16.78;45.07;100896.91;4978990;28;20061;-60
2021/11/13 00:14:16;;;;;;;15.32;6.55;;;;;;;16.81;45.75;100905.53;4996276;28;20076;-59
2021/11/13 00:16:41;;;;;;;14.57;5.55;;;;;;;16.83;45.43;100903.50;4979326;28;20096;-60
2021/11/13 00:19:06;;;;;;;12.15;5.60;;;;;;;16.81;44.63;100900.13;4996167;28;20074;-61
2021/11/13 00:21:32;;;;;;;12.73;6.43;;;;;;;16.84;44.71;100897.09;4996318;28;20034;-61
2021/11/13 00:23:57;;;;;;;12.15;5.82;;;;;;;16.85;46.17;100901.50;4996007;28;20018;-60
2021/11/13 00:26:23;;;;;;;18.52;6.53;;;;;;;16.84;45.10;100899.78;4978491;28;20022;-60
2021/11/13 00:28:49;;;;;;;10.80;6.38;;;;;;;16.86;45.79;100903.16;4978854;28;20018;-60
2021/11/13 00:31:14;;;;;;;12.77;5.68;;;;;;;16.85;46.22;100890.69;4978348;28;20038;-59
2021/11/13 00:33:39;;;;;;;18.42;6.28;;;;;;;16.78;46.05;100889.66;4996039;28;20483;-60
2021/11/13 00:36:05;;;;;;;13.75;5.60;;;;;;;16.81;45.96;100888.47;4978494;28;20391;-59
2021/11/13 00:38:30;;;;;;;14.07;7.03;;;;;;;16.75;45.87;100889.97;4978612;28;20472;-60
2021/11/13 00:40:56;;;;;;;14.48;6.40;;;;;;;16.76;46.68;100891.69;4995776;28;20022;-60
2021/11/13 00:43:22;;;;;;;11.52;6.03;;;;;;;16.69;46.30;100887.97;4995673;28;20054;-59
2021/11/13 00:45:47;;;;;;;12.77;6.25;;;;;;;16.67;46.56;100881.84;4995539;28;20034;-60
2021/11/13 00:48:13;;;;;;;14.57;6.45;;;;;;;16.61;46.29;100882.50;4995126;28;20019;-59
2021/11/13 00:50:40;;;;;;;14.27;6.18;;;;;;;16.59;46.99;100883.69;4978278;28;20031;-59
2021/11/13 00:53:05;;;;;;;17.02;6.38;;;;;;;16.58;45.69;100882.03;4965158;28;20398;-60
2021/11/13 00:55:30;;;;;;;12.75;5.47;;;;;;;16.58;46.40;100876.63;4995672;28;20026;-60
2021/11/13 00:57:57;;;;;;;13.57;6.35;;;;;;;16.51;46.77;100870.97;4996238;28;20030;-60
2021/11/13 01:00:23;;;;;;;9.77;5.82;;;;;;;16.55;46.50;100883.22;4996324;28;20439;-59
2021/11/13 01:02:49;;;;;;;10.27;5.45;;;;;;;16.51;46.26;100876.38;4979387;28;20130;-59
2021/11/13 01:05:15;;;;;;;16.55;6.40;;;;;;;16.50;47.55;100873.88;4988159;28;20029;-60
2021/11/13 01:07:41;;;;;;;13.68;6.15;;;;;;;16.47;46.56;100869.59;5007766;28;20025;-59
2021/11/13 01:10:08;;;;;;;13.18;6.50;;;;;;;16.43;47.85;100867.41;5025188;28;20457;-59
2021/11/13 01:12:34;;;;;;;15.88;6.40;;;;;;;16.43;46.98;100868.28;5005950;28;20022;-59
2021/11/13 01:14:59;;;;;;;15.60;7.00;;;;;;;16.43;46.60;100873.69;5025740;28;20030;-59
2021/11/13 01:17:30;;;;;;;13.35;6.32;;;;;;;16.40;47.74;100852.38;5003853;28;20552;-60
2021/11/13 01:19:55;;;;;;;17.63;6.45;;;;;;;16.47;48.14;100853.38;5003179;28;20031;-60
2021/11/13 01:22:21;;;;;;;18.30;6.82;;;;;;;16.47;48.32;100856.09;4994424;28;20153;-60
2021/11/13 01:24:47;;;;;;;14.27;6.57;;;;;;;16.48;47.91;100851.53;4960796;28;20026;-60
2021/11/13 01:27:14;;;;;;;10.10;5.97;;;;;;;16.45;46.91;100850.00;4994408;28;20037;-60
2021/11/13 01:29:39;;;;;;;12.15;6.70;;;;;;;16.43;47.46;100835.81;4976906;28;20392;-60
2021/11/13 01:32:05;;;;;;;14.20;7.20;;;;;;;16.46;47.03;100840.91;4960078;28;20488;-60
2021/11/13 01:34:30;;;;;;;12.25;6.63;;;;;;;16.45;47.64;100833.78;4993844;28;20026;-60
2021/11/13 01:36:56;;;;;;;12.75;6.18;;;;;;;16.44;48.52;100825.84;4994410;28;20105;-60
2021/11/13 01:39:21;;;;;;;13.73;6.60;;;;;;;16.46;47.56;100818.41;4977662;28;20026;-61
2021/11/13 01:41:48;;;;;;;18.23;6.68;;;;;;;16.44;47.97;100821.31;4995175;28;20513;-60
2021/11/13 01:44:14;;;;;;;17.50;7.05;;;;;;;16.43;48.54;100806.09;4961309;28;20107;-60
2021/11/13 01:46:39;;;;;;;17.35;7.85;;;;;;;16.46;48.98;100805.75;4975709;28;20102;-61
2021/11/13 01:49:05;;;;;;;14.05;6.45;;;;;;;16.47;47.52;100801.19;4977682;28;20035;-60
2021/11/13 01:51:34;;;;;;;12.80;5.90;;;;;;;16.46;48.84;100797.63;4961654;28;20035;-60
2021/11/13 01:54:04;;;;;;;18.00;6.90;;;;;;;16.47;48.88;100796.59;4979174;28;20050;-61
2021/11/13 01:56:29;;;;;;;15.18;6.25;;;;;;;16.48;48.82;100789.34;4978927;28;20077;-60
2021/11/13 01:58:57;;;;;;;15.10;6.03;;;;;;;16.48;49.34;100787.50;4978799;28;20031;-60
2021/11/13 02:01:23;;;;;;;15.98;7.03;;;;;;;16.47;47.83;100785.78;4961909;28;20138;-60
2021/11/13 02:03:49;;;;;;;16.65;6.18;;;;;;;16.48;48.18;100779.38;4979430;28;20031;-60
2021/11/13 02:06:17;;;;;;;13.57;6.50;;;;;;;16.47;49.45;100772.25;4979310;28;20045;-60
2021/11/13 02:08:42;;;;;;;14.38;5.40;;;;;;;16.45;49.37;100773.44;4978136;28;20031;-60
2021/11/13 02:11:13;;;;;;;21.42;6.90;;;;;;;16.49;48.31;100764.84;4962072;28;20078;-60
2021/11/13 02:13:38;;;;;;;12.75;6.07;;;;;;;16.51;49.70;100779.03;4978932;28;20023;-60
2021/11/13 02:16:05;;;;;;;11.85;5.78;;;;;;;16.47;48.64;100777.69;4985997;28;20030;-59
2021/11/13 02:18:30;;;;;;;13.65;6.28;;;;;;;16.51;48.34;100775.50;4998721;28;20033;-60
2021/11/13 02:20:56;;;;;;;13.90;5.72;;;;;;;16.50;48.33;100782.75;4997951;28;20106;-60
2021/11/13 02:23:23;;;;;;;12.15;5.65;;;;;;;16.49;48.73;100772.13;4994214;28;20049;-60
2021/11/13 02:25:52;;;;;;;11.68;5.35;;;;;;;16.52;48.83;100794.25;4974040;28;20101;-60
2021/11/13 02:28:20;;;;;;;13.60;6.28;;;;;;;16.54;49.53;100786.00;4999886;28;20157;-60
2021/11/13 02:30:47;;;;;;;13.85;5.80;;;;;;;16.54;49.41;100778.75;4980625;28;20026;-60
2021/11/13 02:33:13;;;;;;;12.68;5.65;;;;;;;16.55;49.41;100780.44;4980577;28;20033;-60
2021/11/13 02:35:39;;;;;;;13.57;6.03;;;;;;;16.61;50.08;100789.75;4983101;28;20031;-59
2021/11/13 02:38:15;;;;;;;11.48;5.75;;;;;;;16.63;48.66;100776.88;4961406;28;20373;-60
2021/11/13 02:40:43;;;;;;;12.75;6.28;;;;;;;16.61;48.98;100774.31;4978616;28;20026;-60
2021/11/13 02:43:08;;;;;;;13.00;5.50;;;;;;;16.64;49.30;100778.56;4985763;28;20074;-59
2021/11/13 02:45:34;;;;;;;13.27;6.35;;;;;;;16.64;49.55;100771.28;4997993;28;20050;-60
2021/11/13 02:48:01;;;;;;;9.25;5.57;;;;;;;16.60;49.87;100772.66;4970860;28;20086;-60
2021/11/13 02:50:27;;;;;;;12.98;5.28;;;;;;;16.59;50.25;100776.38;5017265;28;20466;-59
2021/11/13 02:52:55;;;;;;;10.85;5.57;;;;;;;16.59;49.08;100776.38;4999780;28;20058;-60
2021/11/13 02:55:21;;;;;;;14.77;5.30;;;;;;;16.59;50.16;100775.53;5017378;28;20106;-59
2021/11/13 02:57:47;;;;;;;13.85;5.32;;;;;;;16.57;50.38;100773.00;5017530;28;20072;-58
2021/11/13 03:00:16;;;;;;;9.25;5.22;;;;;;;16.54;49.44;100767.91;5016430;28;20449;-59
2021/11/13 03:02:41;;;;;;;12.48;6.05;;;;;;;16.53;50.14;100762.63;5017073;28;20033;-59
2021/11/13 03:05:26;;;;;;;14.38;6.50;;;;;;;16.51;50.68;100768.22;5016958;28;20026;-58
2021/11/13 03:07:54;;;;;;;9.73;5.38;;;;;;;16.43;49.50;100757.41;5016796;28;20033;-59
2021/11/13 03:10:21;;;;;;;11.95;5.47;;;;;;;16.46;49.74;100761.63;4999625;28;20517;-59
2021/11/13 03:12:46;;;;;;;9.27;6.05;;;;;;;16.42;49.12;100757.56;5017243;28;20030;-58
2021/11/13 03:15:14;;;;;;;15.70;7.38;;;;;;;16.40;50.25;100752.34;5017395;28;20028;-59
2021/11/13 03:17:40;;;;;;;11.48;6.70;;;;;;;16.40;49.72;100757.75;5017715;28;20505;-59
2021/11/13 03:20:12;;;;;;;11.98;6.22;;;;;;;16.39;49.21;100752.53;5016399;28;20109;-59
2021/11/13 03:22:38;;;;;;;14.93;6.63;;;;;;;16.39;50.80;100752.53;5016339;28;20029;-58
2021/11/13 03:25:09;;;;;;;9.57;6.43;;;;;;;16.34;49.44;100742.19;5016897;28;20317;-58
2021/11/13 03:27:36;;;;;;;11.02;5.72;;;;;;;16.39;50.82;100753.34;5017253;28;20471;-59
2021/11/13 03:30:05;;;;;;;10.48;5.82;;;;;;;16.41;50.00;100745.94;5011880;28;20026;-58
2021/11/13 03:32:32;;;;;;;13.25;6.65;;;;;;;16.41;50.56;100751.34;4997467;28;20026;-58
2021/11/13 03:34:58;;;;;;;15.00;6.05;;;;;;;16.41;50.98;100740.53;4979421;28;20062;-59
2021/11/13 03:37:23;;;;;;;13.95;6.03;;;;;;;16.42;50.56;100739.50;4998888;28;20090;-60
2021/11/13 03:39:49;;;;;;;10.55;5.43;;;;;;;16.40;49.71;100736.13;5016555;28;20037;-59
2021/11/13 03:42:14;;;;;;;10.30;5.40;;;;;;;16.38;49.73;100745.41;5009797;28;20030;-59
2021/11/13 03:44:39;;;;;;;10.30;5.45;;;;;;;16.38;51.03;100740.00;4979101;28;20026;-59
2021/11/13 03:47:05;;;;;;;14.85;6.22;;;;;;;16.39;49.76;100739.81;4979167;28;20439;-60
2021/11/13 03:49:30;;;;;;;11.80;5.13;;;;;;;16.38;50.95;100735.44;4996928;28;20029;-59
2021/11/13 03:51:57;;;;;;;14.15;6.32;;;;;;;16.38;50.54;100724.63;4998253;28;20030;-59
2021/11/13 03:54:22;;;;;;;10.85;4.95;;;;;;;16.37;49.93;100717.53;4980706;28;20028;-59
2021/11/13 03:56:47;;;;;;;9.63;6.03;;;;;;;16.36;51.15;100723.13;4999395;28;20112;-59
2021/11/13 03:59:13;;;;;;;11.27;5.85;;;;;;;16.41;49.48;100728.84;5016296;28;20030;-59
2021/11/13 04:01:38;;;;;;;12.18;5.82;;;;;;;16.38;50.45;100721.94;5016268;28;20022;-58
2021/11/13 04:04:04;;;;;;;12.75;5.38;;;;;;;16.41;50.20;100720.75;5016301;28;20099;-58
2021/11/13 04:06:29;;;;;;;7.38;4.72;;;;;;;16.38;50.85;100718.38;5016034;28;20479;-59
2021/11/13 04:08:55;;;;;;;8.18;4.68;;;;;;;16.38;50.85;100727.34;4990015;28;20030;-59
2021/11/13 04:11:21;;;;;;;13.32;5.28;;;;;;;16.40;50.34;100733.41;4996513;28;20033;-58
2021/11/13 04:13:46;;;;;;;8.85;4.53;;;;;;;16.41;49.94;100727.00;4979133;28;20029;-59
2021/11/13 04:16:12;;;;;;;10.20;4.63;;;;;;;16.41;49.97;100728.84;4998732;28;20476;-59
2021/11/13 04:18:37;;;;;;;11.30;5.45;;;;;;;16.42;49.96;100725.97;5016508;28;20475;-59
2021/11/13 04:21:06;;;;;;;11.45;5.18;;;;;;;16.42;51.33;100736.78;5016685;28;20364;-59
2021/11/13 04:23:33;;;;;;;8.05;4.55;;;;;;;16.44;51.12;100732.06;5014679;28;20064;-59
2021/11/13 04:25:58;;;;;;;7.28;5.00;;;;;;;16.50;50.14;100725.16;4978319;28;20018;-59
2021/11/13 04:28:24;;;;;;;6.95;4.15;;;;;;;16.51;51.24;100730.38;5015259;28;20483;-59
2021/11/13 04:30:50;;;;;;;6.95;4.57;;;;;;;16.52;51.38;100736.63;5015664;28;20033;-59
2021/11/13 04:33:15;;;;;;;11.45;4.90;;;;;;;16.52;51.23;100732.06;5015543;28;20054;-59
2021/11/13 04:35:47;;;;;;;12.95;4.55;;;;;;;16.54;51.29;100740.03;5015670;28;20105;-59
2021/11/13 04:38:12;;;;;;;8.75;5.10;;;;;;;16.58;50.19;100731.41;5007106;28;20495;-59
2021/11/13 04:40:38;;;;;;;8.18;5.07;;;;;;;16.62;50.28;100732.75;4995532;28;20034;-59
2021/11/13 04:43:04;;;;;;;7.20;3.80;;;;;;;16.63;50.43;100733.59;5003818;28;20111;-59
2021/11/13 04:45:30;;;;;;;7.45;4.57;;;;;;;16.66;51.46;100734.13;5015687;28;20382;-59
2021/11/13 04:47:55;;;;;;;8.07;4.35;;;;;;;16.72;49.87;100736.13;5015841;28;20466;-59
2021/11/13 04:50:23;;;;;;;7.60;4.15;;;;;;;16.74;50.67;100746.78;4981604;28;20014;-59
2021/11/13 04:52:49;;;;;;;7.03;3.78;;;;;;;16.76;49.87;100744.75;5015475;28;20022;-59
2021/11/13 04:55:15;;;;;;;6.35;3.97;;;;;;;16.76;51.08;100751.00;5015436;28;20041;-59
2021/11/13 04:57:41;;;;;;;6.50;4.25;;;;;;;16.77;50.12;100751.84;5015362;28;20371;-59
2021/11/13 05:00:09;;;;;;;6.57;4.05;;;;;;;16.79;51.15;100755.22;5015388;28;20030;-60
2021/11/13 05:02:35;;;;;;;6.97;3.70;;;;;;;16.79;50.53;100756.06;5015194;28;20123;-59
2021/11/13 05:05:00;;;;;;;8.70;4.10;;;;;;;16.78;51.00;100757.06;5015066;28;20026;-59
2021/11/13 05:07:26;;;;;;;4.47;3.53;;;;;;;16.80;50.44;100757.78;5013877;28;20056;-60
2021/11/13 05:09:51;;;;;;;7.15;3.78;;;;;;;16.81;50.69;100756.75;4995403;28;20053;-59
2021/11/13 05:12:17;;;;;;;5.72;3.63;;;;;;;16.82;50.62;100750.31;4995517;28;20030;-59
2021/11/13 05:14:43;;;;;;;7.13;3.78;;;;;;;16.82;50.68;100753.03;4977950;28;20026;-59
2021/11/13 05:17:08;;;;;;;5.15;3.20;;;;;;;16.84;49.96;100759.09;4995116;28;20027;-59
2021/11/13 05:19:34;;;;;;;5.80;3.40;;;;;;;16.85;50.48;100758.09;4995075;28;20065;-59
2021/11/13 05:21:59;;;;;;;5.45;3.05;;;;;;;16.87;50.30;100758.78;4995084;28;20038;-60
2021/11/13 05:24:25;;;;;;;6.40;3.35;;;;;;;16.90;50.47;100754.88;4994706;28;20480;-60
2021/11/13 05:26:50;;;;;;;4.28;2.75;;;;;;;16.96;49.75;100761.47;4995107;28;20034;-60
2021/11/13 05:29:16;;;;;;;4.95;3.45;;;;;;;16.96;51.10;100756.03;4977511;28;20034;-59
2021/11/13 05:31:41;;;;;;;5.47;3.25;;;;;;;16.99;50.50;100755.69;4994991;28;20026;-59
2021/11/13 05:34:06;;;;;;;4.00;2.83;;;;;;;16.95;50.49;100751.63;4994984;28;20109;-59
2021/11/13 05:36:32;;;;;;;4.13;2.78;;;;;;;16.95;50.36;100748.94;4994931;28;20029;-59
2021/11/13 05:38:57;;;;;;;6.90;3.33;;;;;;;16.96;50.30;100751.47;4980948;28;20041;-59
2021/11/13 05:41:22;;;;;;;3.70;2.83;;;;;;;16.98;51.68;100752.16;5015185;28;20029;-60
2021/11/13 05:43:48;;;;;;;4.50;2.83;;;;;;;16.97;51.41;100753.19;5015250;28;20103;-59
2021/11/13 05:46:15;;;;;;;3.00;2.28;;;;;;;16.94;50.17;100753.53;5015097;28;20467;-59
2021/11/13 05:48:41;;;;;;;6.95;3.25;;;;;;;16.97;50.43;100753.19;5015417;28;20371;-59
2021/11/13 05:51:06;;;;;;;3.35;2.47;;;;;;;17.00;51.00;100749.28;4997310;28;20048;-60
2021/11/13 05:53:31;;;;;;;3.58;2.38;;;;;;;17.01;51.19;100753.66;4996550;28;20025;-59
2021/11/13 05:55:57;;;;;;;4.63;2.40;;;;;;;16.95;51.05;100752.50;5014571;28;20026;-60
2021/11/13 05:58:22;;;;;;;5.40;2.70;;;;;;;16.93;51.54;100748.25;5014415;28;20026;-59
2021/11/13 06:00:48;;;;;;;2.83;2.20;;;;;;;16.87;51.19;100747.94;5014325;28;20438;-59
2021/11/13 06:03:13;;;;;;;2.25;1.90;;;;;;;16.89;51.30;100748.59;5014610;28;20022;-59
2021/11/13 06:05:40;;;;;;;2.53;2.00;;;;;;;16.92;51.72;100765.53;4996950;28;20025;-59
2021/11/13 06:08:05;;;;;;;3.33;2.38;;;;;;;16.91;51.35;100763.84;5014335;28;20064;-59
2021/11/13 06:10:31;;;;;;;2.53;2.10;;;;;;;16.92;51.16;100760.13;5014288;28;20054;-59
2021/11/13 06:12:56;;;;;;;2.33;1.83;;;;;;;16.90;50.48;100757.56;5014258;28;20033;-60
2021/11/13 06:15:22;;;;;;;2.50;1.75;;;;;;;16.84;51.83;100760.97;4996546;28;20037;-60
2021/11/13 06:17:47;;;;;;;2.70;1.92;;;;;;;16.82;50.42;100765.72;5014373;28;20105;-59
2021/11/13 06:20:12;;;;;;;2.97;1.73;;;;;;;16.80;51.75;100771.31;5014130;28;20116;-59
2021/11/13 06:22:38;;;;;;;2.20;1.90;;;;;;;16.78;51.41;100781.44;5015258;28;20029;-58
2021/11/13 06:25:04;;;;;;;5.55;1.80;;;;;;;16.78;51.06;100777.88;4996447;28;20079;-58
2021/11/13 06:27:30;;;;;;;3.08;1.90;;;;;;;16.76;52.35;100775.34;5014305;28;20463;-59
2021/11/13 06:29:55;;;;;;;2.20;1.70;;;;;;;16.78;51.63;100776.00;5013933;28;20446;-59
2021/11/13 06:32:20;;;;;;;4.35;1.95;;;;;;;16.76;50.99;100777.19;5014037;28;20022;-60
2021/11/13 06:34:46;;;;;;;5.22;1.77;;;;;;;16.79;51.89;100788.53;4998397;28;20029;-59
2021/11/13 06:37:11;;;;;;;2.28;1.65;;;;;;;16.81;52.15;100791.06;5000214;28;20108;-59
2021/11/13 06:39:37;;;;;;;3.50;2.00;;;;;;;16.83;52.26;100789.88;5016124;28;20033;-59
2021/11/13 06:42:03;;;;;;;2.83;1.15;;;;;;;16.85;52.02;100793.28;5000698;28;20026;-59
2021/11/13 06:44:29;;;;;;;1.80;1.48;;;;;;;16.84;51.21;100791.56;5017614;28;20570;-59
2021/11/13 06:46:54;;;;;;;2.10;1.48;;;;;;;16.84;51.74;100794.28;5017876;28;20022;-58
2021/11/13 06:49:20;;;;;;;2.13;1.70;;;;;;;16.78;51.01;100794.94;4992200;28;20029;-59
2021/11/13 06:51:45;;;;;;;1.83;1.50;;;;;;;16.78;51.37;100799.50;4998202;28;20062;-58
2021/11/13 06:54:12;;;;;;;2.15;1.48;;;;;;;16.81;51.36;100802.72;5011296;28;20115;-59
2021/11/13 06:56:42;;;;;;;2.97;1.83;;;;;;;16.81;51.48;100808.16;5017373;28;20026;-59
2021/11/13 06:59:07;;;;;;;2.63;1.80;;;;;;;16.77;51.50;100806.81;4999561;28;20080;-58
2021/11/13 07:01:32;;;;;;;2.08;1.40;;;;;;;16.77;52.12;100812.22;5016912;28;20038;-59
2021/11/13 07:03:58;;;;;;;1.85;1.60;;;;;;;16.81;52.19;100818.97;5017095;28;20030;-63
2021/11/13 07:06:23;;;;;;;1.95;1.45;;;;;;;16.82;52.39;100820.66;4999945;28;20028;-58
2021/11/13 07:08:49;;;;;;;2.03;1.30;;;;;;;16.79;51.99;100815.59;5017510;28;20422;-58
2021/11/13 07:11:14;;;;;;;6.05;2.22;;;;;;;16.84;52.29;100826.75;5017013;28;20037;-59
2021/11/13 07:13:39;;;;;;;2.22;1.80;;;;;;;16.86;51.00;100826.59;5009172;28;20379;-58
2021/11/13 07:16:06;;;;;;;2.97;1.92;;;;;;;16.84;52.42;100829.44;4979871;28;20030;-59
2021/11/13 07:18:31;;;;;;;1.58;1.33;;;;;;;16.84;51.49;100837.56;4997445;28;20053;-59
2021/11/13 07:21:00;;;;;;;1.70;1.55;;;;;;;16.82;52.45;100836.91;4996754;28;20061;-59
2021/11/13 07:23:26;;;;;;;1.90;1.55;;;;;;;16.80;52.40;100838.94;4997198;28;20109;-59
2021/11/13 07:25:51;;;;;;;2.38;1.77;;;;;;;16.74;51.85;100834.19;4997124;28;20109;-58
2021/11/13 07:28:20;;;;;;;1.75;1.42;;;;;;;16.73;52.26;100843.31;4997660;28;20034;-59
2021/11/13 07:30:47;;;;;;;2.38;1.90;;;;;;;16.76;52.48;100842.97;4996981;28;20034;-58
2021/11/13 07:33:13;;;;;;;2.92;1.95;;;;;;;16.80;51.85;100855.16;4996922;28;20077;-59
2021/11/13 07:35:42;;;;;;;2.15;1.70;;;;;;;16.80;51.94;100848.91;4979257;28;20042;-60
2021/11/13 07:38:08;;;;;;;1.92;1.52;;;;;;;16.81;51.56;100853.28;4997317;28;20033;-58
2021/11/13 07:40:33;;;;;;;4.43;1.70;;;;;;;16.77;52.09;100855.50;4996919;28;20018;-58
2021/11/13 07:43:00;;;;;;;2.55;1.90;;;;;;;16.79;51.95;100856.16;4996601;28;20129;-58
2021/11/13 07:45:27;;;;;;;3.10;1.83;;;;;;;16.79;51.77;100853.47;4979249;28;20156;-59
2021/11/13 07:47:52;;;;;;;2.78;1.40;;;;;;;16.80;53.15;100859.72;4996961;28;20060;-59
2021/11/13 07:50:18;;;;;;;6.53;1.77;;;;;;;16.77;52.54;100854.66;4996407;28;20022;-59
2021/11/13 07:52:44;;;;;;;2.10;1.90;;;;;;;16.79;52.83;100855.31;5010820;28;20022;-59
2021/11/13 07:55:11;;;;;;;4.82;2.15;;;;;;;16.80;52.75;100859.72;5016209;28;20037;-59
2021/11/13 07:57:37;;;;;;;5.25;2.10;;;;;;;16.77;53.06;100855.50;5016360;28;20034;-59
2021/11/13 08:00:07;;;;;;;3.58;2.20;;;;;;;16.78;52.14;100846.34;4998679;28;20444;-58
2021/11/13 08:02:32;;;;;;;2.92;1.65;;;;;;;16.82;52.14;100855.84;5016150;28;20542;-58
2021/11/13 08:04:57;;;;;;;4.35;1.90;;;;;;;16.83;52.27;100857.50;5015925;28;20096;-59
2021/11/13 08:07:23;;;;;;;2.90;1.58;;;;;;;16.84;51.75;100859.22;5015992;28;20084;-59
2021/11/13 08:09:49;;;;;;;5.20;2.00;;;;;;;16.87;52.82;100860.72;5016376;28;20013;-59
2021/11/13 08:12:14;;;;;;;2.83;1.77;;;;;;;16.88;52.94;100857.88;5015870;28;20471;-59
2021/11/13 08:14:40;;;;;;;4.78;2.00;;;;;;;16.88;52.75;100868.69;5016082;28;20109;-59
2021/11/13 08:17:05;;;;;;;4.25;1.92;;;;;;;16.88;53.20;100866.00;5016138;28;20486;-59
2021/11/13 08:19:30;;;;;;;2.58;2.13;;;;;;;16.92;51.79;100868.38;5015801;28;20087;-59
2021/11/13 08:21:56;;;;;;;5.03;1.73;;;;;;;16.96;52.52;100875.09;5015737;28;20042;-59
2021/11/13 08:24:21;;;;;;;4.20;1.80;;;;;;;16.94;52.26;100877.16;5016201;28;20079;-58
2021/11/13 08:26:47;;;;;;;4.30;2.00;;;;;;;17.02;52.05;100880.72;5016019;28;20025;-59
2021/11/13 08:29:14;;;;;;;4.00;2.10;;;;;;;17.09;52.81;100880.84;5015630;28;20033;-59
2021/11/13 08:31:39;;;;;;;3.38;2.05;;;;;;;17.15;52.29;100883.72;5015794;28;20021;-59
2021/11/13 08:34:05;;;;;;;2.30;1.85;;;;;;;17.21;51.99;100876.78;5016004;28;20030;-59
2021/11/13 08:36:30;;;;;;;4.53;2.08;;;;;;;17.26;52.04;100877.13;5015417;28;20026;-59
2021/11/13 08:38:56;;;;;;;4.40;2.80;;;;;;;17.37;52.48;100879.47;4998343;28;20033;-59
2021/11/13 08:41:21;;;;;;;3.58;2.30;;;;;;;17.40;52.84;100879.97;5015386;28;20022;-59
2021/11/13 08:43:49;;;;;;;3.90;2.13;;;;;;;17.50;51.90;100879.81;5015888;28;20053;-59
2021/11/13 08:46:14;;;;;;;4.63;2.53;;;;;;;17.58;51.66;100878.97;5015465;28;20057;-59
2021/11/13 08:48:40;;;;;;;3.38;2.58;;;;;;;17.54;51.88;100867.63;5015369;28;20458;-59
2021/11/13 08:51:05;;;;;;;6.18;2.67;;;;;;;17.66;52.36;100877.09;5015368;28;20539;-59
2021/11/13 08:53:31;;;;;;;2.30;1.90;;;;;;;17.76;52.40;100879.56;4998290;28;20026;-59
2021/11/13 08:55:56;;;;;;;4.47;3.17;;;;;;;17.86;51.72;100885.66;5015659;28;20491;-59
2021/11/13 08:58:21;;;;;;;3.95;2.50;;;;;;;17.94;51.79;100891.03;5016884;28;20573;-59
2021/11/13 09:00:52;;;;;;;5.72;3.17;;;;;;;18.07;51.79;100893.19;5021751;28;20029;-60
2021/11/13 09:03:22;;;;;;;4.85;2.58;;;;;;;18.18;51.11;100879.22;5024496;28;20072;-60
2021/11/13 09:05:48;;;;;;;4.13;2.78;;;;;;;18.29;51.58;100886.97;5021877;28;20018;-60
2021/11/13 09:08:14;;;;;;;3.85;2.97;;;;;;;18.39;50.67;100887.63;5022208;28;20100;-60
2021/11/13 09:10:40;;;;;;;5.32;2.75;;;;;;;18.46;51.07;100886.72;5024532;28;20022;-59
2021/11/13 09:13:07;;;;;;;3.67;2.40;;;;;;;18.51;51.37;100895.19;5023170;28;20026;-60
2021/11/13 09:15:34;;;;;;;6.95;2.80;;;;;;;18.55;51.29;100888.41;5022477;28;20022;-60
2021/11/13 09:18:00;;;;;;;4.78;2.95;;;;;;;18.62;51.74;100890.41;5022218;28;20029;-60
2021/11/13 09:20:26;;;;;;;5.68;2.92;;;;;;;18.68;51.70;100890.50;5023634;28;20029;-60
2021/11/13 09:22:52;;;;;;;5.22;2.72;;;;;;;18.77;50.92;100897.56;5020848;28;20029;-59
2021/11/13 09:25:18;;;;;;;6.57;3.53;;;;;;;18.83;51.29;100902.28;5021972;28;20087;-60
2021/11/13 09:27:45;;;;;;;6.43;3.00;;;;;;;18.90;51.13;100903.22;5024965;28;20021;-60
2021/11/13 09:30:18;;;;;;;8.75;3.30;;;;;;;18.95;51.36;100900.84;5023241;28;20029;-60
2021/11/13 09:32:46;;;;;;;4.20;2.55;;;;;;;18.95;51.87;100900.00;5019068;28;20513;-60
2021/11/13 09:35:11;;;;;;;5.18;2.97;;;;;;;18.91;51.74;100894.06;5021106;28;20425;-61
2021/11/13 09:37:40;;;;;;;7.45;2.85;;;;;;;18.93;51.81;100908.31;5021388;28;20033;-62
2021/11/13 09:40:07;;;;;;;6.18;2.88;;;;;;;18.88;51.95;100909.88;5022533;28;20027;-60
2021/11/13 09:42:32;;;;;;;4.38;2.45;;;;;;;18.85;51.28;100911.06;5022452;28;20018;-60
2021/11/13 09:44:58;;;;;;;4.13;2.40;;;;;;;18.81;51.64;100907.06;5006612;28;20021;-60
2021/11/13 09:47:23;;;;;;;7.13;3.10;;;;;;;18.79;51.60;100900.13;5023817;28;20025;-60
2021/11/13 09:49:49;;;;;;;7.00;2.80;;;;;;;18.79;51.55;100903.66;5005332;28;20025;-60
2021/11/13 09:52:15;;;;;;;7.47;3.03;;;;;;;18.84;51.13;100903.97;5022291;28;20394;-60
2021/11/13 09:54:42;;;;;;;7.20;2.28;;;;;;;18.77;51.10;100897.56;5024565;28;20047;-60
2021/11/13 09:57:08;;;;;;;4.03;2.63;;;;;;;18.89;51.29;100909.69;5025634;28;20036;-60
2021/11/13 09:59:33;;;;;;;3.75;2.28;;;;;;;18.89;51.07;100903.44;5004997;28;20033;-60
2021/11/13 10:01:59;;;;;;;3.42;2.42;;;;;;;18.94;51.15;100910.00;5006227;28;20025;-60
2021/11/13 10:04:24;;;;;;;8.20;2.63;;;;;;;18.98;51.71;100900.44;5025323;28;20041;-60
2021/11/13 10:06:50;;;;;;;8.93;2.63;;;;;;;18.95;51.60;100913.56;5015967;28;20026;-60
2021/11/13 10:09:16;;;;;;;6.30;2.10;;;;;;;18.92;51.24;100909.34;5015513;28;20069;-60
2021/11/13 10:11:45;;;;;;;2.78;2.13;;;;;;;18.90;51.31;100915.97;5017760;28;20037;-60
2021/11/13 10:14:10;;;;;;;4.85;2.45;;;;;;;18.89;51.61;100915.13;5018204;28;20467;-60
2021/11/13 10:16:39;;;;;;;4.22;2.47;;;;;;;18.84;51.39;100903.97;5000634;28;20087;-60
2021/11/13 10:19:08;;;;;;;4.05;2.67;;;;;;;18.88;51.52;100907.16;5000313;28;20088;-60
2021/11/13 10:21:35;;;;;;;6.22;2.42;;;;;;;18.91;51.35;100904.94;5017866;28;20471;-60
2021/11/13 10:24:22;;;;;;;6.90;2.55;;;;;;;18.94;51.14;100910.00;5018025;28;20022;-60
2021/11/13 10:26:51;;;;;;;4.40;2.08;;;;;;;18.97;51.34;100908.78;5017719;28;20022;-60
2021/11/13 10:29:19;;;;;;;3.75;2.53;;;;;;;18.97;51.22;100914.22;5018082;28;20490;-60
2021/11/13 10:31:46;;;;;;;2.63;1.90;;;;;;;18.95;51.73;100919.00;5017641;28;20053;-60
2021/11/13 10:34:14;;;;;;;2.65;2.30;;;;;;;18.92;51.62;100914.78;5018249;28;20462;-60
2021/11/13 10:36:42;;;;;;;2.78;2.17;;;;;;;18.92;52.17;100916.63;5018096;28;20474;-61
2021/11/13 10:39:11;;;;;;;6.18;2.65;;;;;;;18.90;51.77;100918.69;4999973;28;20033;-61
2021/11/13 10:41:58;;;;;;;4.07;2.50;;;;;;;18.88;51.62;100916.16;5017777;28;20021;-60
2021/11/13 10:44:35;;;;;;;5.07;2.63;;;;;;;18.85;51.45;100911.06;5017762;28;20060;-60
2021/11/13 10:47:12;;;;;;;5.55;2.70;;;;;;;18.89;51.52;100917.00;5000342;28;20056;-60
2021/11/13 10:49:38;;;;;;;6.43;2.70;;;;;;;18.95;51.39;100911.69;5000743;28;20026;-61
2021/11/13 10:52:05;;;;;;;5.35;3.10;;;;;;;18.99;51.36;100921.16;5017655;28;20048;-60
2021/11/13 10:54:31;;;;;;;8.50;3.17;;;;;;;19.01;51.68;100908.22;5017687;28;20032;-61
2021/11/13 10:57:00;;;;;;;4.50;2.83;;;;;;;19.02;51.17;100912.66;5017307;28;20034;-60
2021/11/13 10:59:34;;;;;;;5.88;2.97;;;;;;;19.00;51.65;100901.13;5000073;28;20471;-61
2021/11/13 11:02:03;;;;;;;4.65;2.92;;;;;;;19.00;51.84;100898.41;5017640;28;20021;-62
2021/11/13 11:04:30;;;;;;;4.82;2.83;;;;;;;18.97;51.49;100906.94;5017769;28;20026;-61
2021/11/13 11:07:04;;;;;;;4.55;2.70;;;;;;;18.95;51.85;100908.13;5018517;28;20025;-61
2021/11/13 11:09:34;;;;;;;4.05;3.00;;;;;;;18.95;52.09;100906.28;5017974;28;20395;-61
2021/11/13 11:12:06;;;;;;;5.32;3.42;;;;;;;18.99;51.97;100907.56;5018041;28;20490;-61
2021/11/13 11:14:32;;;;;;;6.65;2.78;;;;;;;19.03;51.66;100913.50;5018235;28;20026;-61
2021/11/13 11:17:01;;;;;;;3.17;2.85;;;;;;;19.08;51.46;100914.66;5018643;28;20030;-62
2021/11/13 11:19:31;;;;;;;3.65;2.42;;;;;;;19.08;51.90;100911.94;5001604;28;20018;-60